createdAt,value
2019-02-28T00:19:37.000Z,68.47
2019-02-28T00:22:06.642Z,64.20
2019-02-28T00:24:35.449Z,65.90
2019-02-28T00:27:04.216Z,66.77
2019-02-28T00:29:33.754Z,71.03
2019-02-28T00:32:03.276Z,64.60
2019-02-28T00:34:33.079Z,65.17
2019-02-28T00:37:01.899Z,60.83
2019-02-28T00:39:31.405Z,74.43
2019-02-28T00:42:01.183Z,66.47
2019-02-28T00:44:31.210Z,71.70
2019-02-28T00:47:00.124Z,71.97
2019-02-28T00:49:28.807Z,74.97
2019-02-28T00:51:57.447Z,74.43
2019-02-28T00:54:25.995Z,73.27
2019-02-28T00:56:54.777Z,74.87
2019-02-28T00:59:23.583Z,75.73
2019-02-28T01:11:36.627Z,77.33
2019-02-28T01:14:05.318Z,73.23
2019-02-28T01:16:33.969Z,75.50
2019-02-28T01:19:02.711Z,75.80
2019-02-28T01:21:31.487Z,71.00
2019-02-28T01:24:00.864Z,70.07
2019-02-28T01:26:30.608Z,79.00
2019-02-28T01:29:01.988Z,79.50
2019-02-28T01:31:29.503Z,92.90
2019-02-28T01:33:58.732Z,88.03
2019-02-28T01:36:28.213Z,97.77
2019-02-28T01:38:58.074Z,99.17
2019-02-28T01:41:27.355Z,96.33
2019-02-28T01:43:55.931Z,102.80
2019-02-28T01:46:24.498Z,104.73
2019-02-28T01:48:54.559Z,102.33
2019-02-28T01:51:23.348Z,104.23
2019-02-28T01:53:53.588Z,104.63
2019-02-28T01:56:22.320Z,100.20
2019-02-28T01:58:51.144Z,103.97
2019-02-28T02:01:20.027Z,98.30
2019-02-28T02:03:48.819Z,101.77
2019-02-28T02:06:17.529Z,101.00
2019-02-28T02:08:46.187Z,103.13
2019-02-28T02:11:14.903Z,93.90
2019-02-28T02:13:43.501Z,97.90
2019-02-28T02:16:12.132Z,102.03
2019-02-28T02:18:43.323Z,102.43
2019-02-28T02:21:11.093Z,92.50
2019-02-28T02:23:39.744Z,98.37
2019-02-28T02:26:11.284Z,96.87
2019-02-28T02:28:38.705Z,90.23
2019-02-28T02:31:07.359Z,92.33
2019-02-28T02:33:36.030Z,91.50
2019-02-28T02:36:04.733Z,85.63
2019-02-28T02:38:40.111Z,94.73
2019-02-28T02:41:04.897Z,86.33
2019-02-28T02:43:33.654Z,83.20
2019-02-28T02:46:02.326Z,83.23
2019-02-28T02:48:31.023Z,100.30
2019-02-28T02:50:59.806Z,79.47
2019-02-28T02:53:28.399Z,89.70
2019-02-28T02:56:03.611Z,88.73
2019-02-28T02:58:28.213Z,85.47
2019-02-28T03:00:57.077Z,88.27
2019-02-28T03:03:26.029Z,80.03
2019-02-28T03:05:54.724Z,84.00
2019-02-28T03:08:23.512Z,82.83
2019-02-28T03:10:53.186Z,93.20
2019-02-28T03:13:21.931Z,87.53
2019-02-28T03:15:50.590Z,84.97
2019-02-28T03:18:20.579Z,83.77
2019-02-28T03:20:49.396Z,83.53
2019-02-28T03:23:17.896Z,86.17
2019-02-28T03:25:46.564Z,91.03
2019-02-28T03:28:15.186Z,91.27
2019-02-28T03:30:44.330Z,90.17
2019-02-28T03:33:23.434Z,86.83
2019-02-28T03:35:45.470Z,95.17
2019-02-28T03:38:14.221Z,92.70
2019-02-28T03:41:19.355Z,88.80
2019-02-28T03:44:10.614Z,87.33
2019-02-28T03:47:44.984Z,86.17
2019-02-28T03:50:44.836Z,84.70
2019-02-28T04:07:21.222Z,83.47
2019-02-28T04:12:14.734Z,80.73
2019-02-28T04:28:41.349Z,98.00
2019-02-28T04:31:20.980Z,87.90
2019-02-28T04:33:55.929Z,87.03
2019-02-28T04:36:35.826Z,93.20
2019-02-28T04:42:11.867Z,101.47
2019-02-28T04:48:05.795Z,84.97
2019-02-28T05:00:40.350Z,99.63
2019-02-28T05:03:20.035Z,86.30
2019-02-28T05:05:48.634Z,80.73
2019-02-28T05:08:17.264Z,88.70
2019-02-28T05:10:46.367Z,91.00
2019-02-28T05:13:15.288Z,81.07
2019-02-28T05:15:43.968Z,87.50
2019-02-28T05:18:27.625Z,82.57
2019-02-28T05:20:55.118Z,85.80
2019-02-28T05:23:23.906Z,85.00
2019-02-28T05:25:55.090Z,85.53
2019-02-28T05:28:23.903Z,88.00
2019-02-28T05:30:53.754Z,94.07
2019-02-28T05:33:24.587Z,96.00
2019-02-28T05:35:53.033Z,97.37
2019-02-28T05:38:37.394Z,93.07
2019-02-28T05:41:23.822Z,99.97
2019-02-28T05:46:41.296Z,92.73
2019-02-28T05:49:19.286Z,88.23
2019-02-28T05:51:47.959Z,90.23
2019-02-28T05:54:17.217Z,102.57
2019-02-28T05:56:45.956Z,92.70
2019-02-28T05:59:14.762Z,95.40
2019-02-28T06:01:50.173Z,103.37
2019-02-28T06:04:19.143Z,98.07
2019-02-28T06:06:51.291Z,93.13
2019-02-28T06:09:21.106Z,98.73
2019-02-28T06:11:53.986Z,102.57
2019-02-28T06:14:27.566Z,96.43
2019-02-28T06:16:53.648Z,98.43
2019-02-28T06:19:22.403Z,98.00
2019-02-28T06:21:52.970Z,94.50
2019-02-28T06:24:21.618Z,101.93
2019-02-28T06:26:50.390Z,92.30
2019-02-28T06:29:19.034Z,94.67
2019-02-28T06:31:48.647Z,100.03
2019-02-28T06:34:18.031Z,97.13
2019-02-28T06:36:46.677Z,95.13
2019-02-28T06:39:17.451Z,101.30
2019-02-28T06:41:45.994Z,100.63
2019-02-28T06:44:14.646Z,104.00
2019-02-28T06:46:43.378Z,93.37
2019-02-28T06:49:11.999Z,99.73
2019-02-28T06:51:40.663Z,97.17
2019-02-28T06:54:09.312Z,102.17
2019-02-28T06:56:37.961Z,103.03
2019-02-28T06:59:06.524Z,94.40
2019-02-28T07:01:36.822Z,116.17
2019-02-28T07:04:05.702Z,103.77
2019-02-28T07:06:35.966Z,105.53
2019-02-28T07:09:06.074Z,101.40
2019-02-28T07:11:34.888Z,109.10
2019-02-28T07:14:03.548Z,103.70
2019-02-28T07:16:34.532Z,110.53
2019-02-28T07:19:02.577Z,110.33
2019-02-28T07:21:31.314Z,101.73
2019-02-28T07:24:02.486Z,104.20
2019-02-28T07:26:30.502Z,100.20
2019-02-28T07:28:59.235Z,112.37
2019-02-28T07:31:27.916Z,111.53
2019-02-28T07:33:56.686Z,121.90
2019-02-28T07:36:25.470Z,127.60
2019-02-28T07:38:54.188Z,124.27
2019-02-28T07:41:26.359Z,142.80
2019-02-28T07:43:53.226Z,145.93
2019-02-28T07:46:21.936Z,153.10
2019-02-28T07:48:50.670Z,169.33
2019-02-28T07:51:22.688Z,178.43
2019-02-28T07:53:49.758Z,170.37
2019-02-28T07:56:18.448Z,194.13
2019-02-28T07:58:46.998Z,203.77
2019-02-28T08:01:15.784Z,214.60
2019-02-28T08:03:44.953Z,194.63
2019-02-28T08:06:13.710Z,218.87
2019-02-28T08:08:42.342Z,239.50
2019-02-28T08:11:11.095Z,227.50
2019-02-28T08:13:39.732Z,258.10
2019-02-28T08:16:08.556Z,237.27
2019-02-28T08:18:37.304Z,230.83
2019-02-28T08:21:08.701Z,266.07
2019-02-28T08:23:37.611Z,249.07
2019-02-28T08:26:06.308Z,241.30
2019-02-28T08:28:36.729Z,272.03
2019-02-28T08:31:05.474Z,257.20
2019-02-28T08:33:34.134Z,223.67
2019-02-28T08:36:02.781Z,231.33
2019-02-28T08:38:34.285Z,219.67
2019-02-28T08:41:01.670Z,228.07
2019-02-28T08:43:30.254Z,200.17
2019-02-28T08:45:58.965Z,178.67
2019-02-28T08:48:31.552Z,193.23
2019-02-28T08:50:59.547Z,183.33
2019-02-28T08:53:28.110Z,181.90
2019-02-28T08:55:56.775Z,183.53
2019-02-28T08:58:25.299Z,153.50
2019-02-28T09:00:53.934Z,126.37
2019-02-28T09:03:26.891Z,141.57
2019-02-28T09:05:53.010Z,136.53
2019-02-28T09:08:22.414Z,121.77
2019-02-28T09:10:51.878Z,123.83
2019-02-28T09:13:20.790Z,114.83
2019-02-28T09:15:50.660Z,124.87
2019-02-28T09:18:19.290Z,110.20
2019-02-28T09:20:47.980Z,98.73
2019-02-28T09:23:16.688Z,104.97
2019-02-28T09:25:45.378Z,99.00
2019-02-28T09:28:14.031Z,89.97
2019-02-28T09:30:44.588Z,84.10
2019-02-28T09:33:13.344Z,88.30
2019-02-28T09:35:45.627Z,78.10
2019-02-28T09:38:13.750Z,73.73
2019-02-28T09:40:42.547Z,68.70
2019-02-28T09:43:11.173Z,77.00
2019-02-28T09:45:41.047Z,55.43
2019-02-28T09:48:09.950Z,53.77
2019-02-28T09:50:38.656Z,55.93
2019-02-28T09:53:07.331Z,47.63
2019-02-28T09:55:39.253Z,53.77
2019-02-28T09:58:08.016Z,46.80
2019-02-28T10:00:37.188Z,46.57
2019-02-28T10:03:06.815Z,43.90
2019-02-28T10:05:38.940Z,46.00
2019-02-28T10:08:07.095Z,49.70
2019-02-28T10:10:36.111Z,48.30
2019-02-28T10:13:04.904Z,40.63
2019-02-28T10:15:33.680Z,39.50
2019-02-28T10:18:04.441Z,39.90
2019-02-28T10:20:35.263Z,38.50
2019-02-28T10:23:04.073Z,33.30
2019-02-28T10:25:32.930Z,33.43
2019-02-28T10:28:02.800Z,29.80
2019-02-28T10:30:32.696Z,28.60
2019-02-28T10:33:01.578Z,33.00
2019-02-28T10:35:33.420Z,30.50
2019-02-28T10:38:00.936Z,27.57
2019-02-28T10:40:31.552Z,25.60
2019-02-28T10:43:00.258Z,26.83
2019-02-28T10:45:30.670Z,33.10
2019-02-28T10:48:02.933Z,25.60
2019-02-28T10:50:35.822Z,23.53
2019-02-28T10:53:06.024Z,20.87
2019-02-28T10:55:35.114Z,22.15
2019-02-28T10:58:04.032Z,31.83
2019-02-28T11:00:39.651Z,27.87
2019-02-28T11:03:08.438Z,27.30
2019-02-28T11:05:39.042Z,25.33
2019-02-28T11:08:09.763Z,24.20
2019-02-28T11:10:41.301Z,24.83
2019-02-28T11:13:20.403Z,22.77
2019-02-28T11:15:50.151Z,17.27
2019-02-28T11:20:58.355Z,17.03
2019-02-28T11:23:28.201Z,32.37
2019-02-28T11:25:57.187Z,22.10
2019-02-28T11:28:28.307Z,28.13
2019-02-28T11:30:58.108Z,20.57
2019-02-28T11:33:36.445Z,26.67
2019-02-28T11:36:07.483Z,25.00
2019-02-28T11:38:36.603Z,22.47
2019-02-28T11:41:11.074Z,23.53
2019-02-28T11:43:40.047Z,25.00
2019-02-28T11:46:09.858Z,20.03
2019-02-28T11:48:38.611Z,16.90
2019-02-28T11:51:07.413Z,28.10
2019-02-28T11:53:39.372Z,29.90
2019-02-28T11:56:06.846Z,23.67
2019-02-28T11:58:35.615Z,23.00
2019-02-28T12:01:10.227Z,28.97
2019-02-28T12:03:35.741Z,26.37
2019-02-28T12:06:06.828Z,39.17
2019-02-28T12:08:35.855Z,24.20
2019-02-28T12:11:04.622Z,29.17
2019-02-28T12:13:33.475Z,26.50
2019-02-28T12:16:02.245Z,27.83
2019-02-28T12:18:31.123Z,29.37
2019-02-28T12:21:02.071Z,27.33
2019-02-28T12:23:30.534Z,24.63
2019-02-28T12:25:59.863Z,22.07
2019-02-28T12:28:28.486Z,15.80
2019-02-28T12:31:00.124Z,23.07
2019-02-28T12:33:27.690Z,24.83
2019-02-28T12:36:53.232Z,20.67
2019-02-28T12:39:23.653Z,21.83
2019-02-28T12:45:53.651Z,22.93
2019-02-28T12:48:22.502Z,19.17
2019-02-28T12:54:56.913Z,14.70
2019-02-28T12:57:25.678Z,17.13
2019-02-28T13:03:25.053Z,12.83
2019-02-28T13:09:30.374Z,19.47
2019-02-28T13:17:48.563Z,11.87
2019-02-28T13:21:06.049Z,10.33
2019-02-28T13:26:45.311Z,17.80
2019-02-28T13:29:14.184Z,12.97
2019-02-28T13:31:45.599Z,13.13
2019-02-28T13:34:14.333Z,14.03
2019-02-28T13:36:43.101Z,10.77
2019-02-28T13:39:12.023Z,11.30
2019-02-28T13:41:40.765Z,13.53
2019-02-28T13:44:09.622Z,13.37
2019-02-28T13:46:38.379Z,7.97
2019-02-28T13:49:08.503Z,16.67
2019-02-28T13:51:42.004Z,12.07
2019-02-28T13:54:08.137Z,9.23
2019-02-28T13:56:36.992Z,11.23
2019-02-28T13:59:05.741Z,15.43
2019-02-28T14:01:34.472Z,12.87
2019-02-28T14:04:03.237Z,10.53
2019-02-28T14:06:32.089Z,15.33
2019-02-28T14:09:01.039Z,13.27
2019-02-28T14:11:30.889Z,12.87
2019-02-28T14:13:59.525Z,16.67
2019-02-28T14:16:28.276Z,17.57
2019-02-28T14:18:56.985Z,20.80
2019-02-28T14:21:26.273Z,13.50
2019-02-28T14:23:55.910Z,22.40
2019-02-28T14:26:25.914Z,19.37
2019-02-28T14:28:54.613Z,16.83
2019-02-28T14:31:23.567Z,13.53
2019-02-28T14:33:54.389Z,14.20
2019-02-28T14:36:22.975Z,14.37
2019-02-28T14:38:51.763Z,19.13
2019-02-28T14:41:20.575Z,13.67
2019-02-28T14:43:49.370Z,12.47
2019-02-28T14:46:19.108Z,11.47
2019-02-28T14:48:48.256Z,8.20
2019-02-28T14:51:17.050Z,15.60
2019-02-28T14:53:49.238Z,12.67
2019-02-28T14:56:16.078Z,16.73
2019-02-28T14:58:44.707Z,19.57
2019-02-28T15:01:16.822Z,14.27
2019-02-28T15:03:43.979Z,18.07
2019-02-28T15:06:14.015Z,21.20
2019-02-28T15:08:43.788Z,18.30
2019-02-28T15:11:12.596Z,21.43
2019-02-28T15:13:41.377Z,19.80
2019-02-28T15:16:10.437Z,31.90
2019-02-28T15:18:39.257Z,18.90
2019-02-28T15:21:09.696Z,17.47
2019-02-28T15:23:38.518Z,16.23
2019-02-28T15:26:07.363Z,17.70
2019-02-28T15:28:36.209Z,17.73
2019-02-28T15:31:05.746Z,36.43
2019-02-28T15:33:35.231Z,22.93
2019-02-28T15:36:04.159Z,23.93
2019-02-28T15:38:32.827Z,19.00
2019-02-28T15:41:03.723Z,18.93
2019-02-28T15:43:33.314Z,17.00
2019-02-28T15:46:05.326Z,8.27
2019-02-28T15:48:34.621Z,10.63
2019-02-28T15:51:04.815Z,9.17
2019-02-28T15:53:36.797Z,9.83
2019-02-28T15:56:13.040Z,7.53
2019-02-28T15:58:37.627Z,8.87
2019-02-28T16:01:06.768Z,11.93
2019-02-28T16:03:37.015Z,8.83
2019-02-28T16:06:05.693Z,10.40
2019-02-28T16:08:34.349Z,10.93
2019-02-28T16:11:03.264Z,21.73
2019-02-28T16:13:33.639Z,15.30
2019-02-28T16:16:02.419Z,13.73
2019-02-28T16:18:31.129Z,17.03
2019-02-28T16:20:59.873Z,21.93
2019-02-28T16:23:31.069Z,20.33
2019-02-28T16:25:59.902Z,16.67
2019-02-28T16:28:35.195Z,11.97
2019-02-28T16:31:08.900Z,18.57
2019-02-28T16:33:39.796Z,20.33
2019-02-28T16:36:13.022Z,18.37
2019-02-28T16:38:45.055Z,13.90
2019-02-28T16:41:14.597Z,14.03
2019-02-28T16:43:46.600Z,18.67
2019-02-28T16:46:16.178Z,17.60
2019-02-28T16:48:45.209Z,27.47
2019-02-28T16:51:13.918Z,25.37
2019-02-28T16:53:42.642Z,24.30
2019-02-28T16:56:11.466Z,25.43
2019-02-28T16:58:40.243Z,23.20
2019-02-28T17:01:09.130Z,26.97
2019-02-28T17:03:38.333Z,29.97
2019-02-28T17:06:08.362Z,33.50
2019-02-28T17:08:38.680Z,26.87
2019-02-28T17:11:07.378Z,22.17
2019-02-28T17:13:40.227Z,26.30
2019-02-28T17:16:10.640Z,18.60
2019-02-28T17:18:40.907Z,25.37
2019-02-28T17:21:13.100Z,24.97
2019-02-28T17:23:40.011Z,14.13
2019-02-28T17:26:08.778Z,13.13
2019-02-28T17:28:46.582Z,10.43
2019-02-28T17:31:25.590Z,10.97
2019-02-28T17:33:54.353Z,11.03
2019-02-28T17:36:23.075Z,8.60
2019-02-28T17:38:51.767Z,8.83
2019-02-28T17:41:20.542Z,10.70
2019-02-28T17:44:08.512Z,12.87
2019-02-28T17:46:37.251Z,13.20
2019-02-28T17:49:11.710Z,8.87
2019-02-28T17:51:49.433Z,10.40
2019-02-28T17:54:36.323Z,11.27
2019-02-28T17:57:16.469Z,17.73
2019-02-28T17:59:47.301Z,11.07
2019-02-28T18:05:40.581Z,13.07
2019-02-28T18:08:21.539Z,12.93
2019-02-28T18:10:59.284Z,18.97
2019-02-28T18:13:43.628Z,14.00
2019-02-28T18:16:30.051Z,11.70
2019-02-28T18:22:40.165Z,14.23
2019-02-28T18:25:23.792Z,13.77
2019-02-28T18:28:04.568Z,12.57
2019-02-28T18:30:36.331Z,8.33
2019-02-28T18:33:06.719Z,13.73
2019-02-28T18:35:35.506Z,15.37
2019-02-28T18:38:04.365Z,19.27
2019-02-28T18:40:33.204Z,11.83
2019-02-28T18:43:02.251Z,11.13
2019-02-28T18:45:31.249Z,10.97
2019-02-28T18:48:00.169Z,17.50
2019-02-28T18:50:29.035Z,11.40
2019-02-28T18:52:57.810Z,12.93
2019-02-28T18:55:34.647Z,10.63
2019-02-28T18:57:56.987Z,17.03
2019-02-28T19:00:25.993Z,13.27
2019-02-28T19:02:54.754Z,13.77
2019-02-28T19:05:23.595Z,17.13
2019-02-28T19:07:52.372Z,16.93
2019-02-28T19:10:21.213Z,13.17
2019-02-28T19:12:53.014Z,11.40
2019-02-28T19:15:25.101Z,13.03
2019-02-28T19:17:53.852Z,16.90
2019-02-28T19:20:26.193Z,16.40
2019-02-28T19:22:55.139Z,18.00
2019-02-28T19:25:23.903Z,13.40
2019-02-28T19:27:52.596Z,19.30
2019-02-28T19:30:21.307Z,16.43
2019-02-28T19:32:50.189Z,17.53
2019-02-28T19:35:18.870Z,23.23
2019-02-28T19:37:47.728Z,12.87
2019-02-28T19:40:16.530Z,27.80
2019-02-28T19:42:49.348Z,37.87
2019-02-28T19:45:30.123Z,31.93
2019-02-28T19:47:58.852Z,26.40
2019-02-28T19:50:28.961Z,33.20
2019-02-28T19:53:00.092Z,20.93
2019-02-28T19:55:34.588Z,30.47
2019-02-28T19:58:11.176Z,31.80
2019-02-28T20:00:40.045Z,28.80
2019-02-28T20:03:14.881Z,32.17
2019-02-28T20:05:46.660Z,30.73
2019-02-28T20:08:19.138Z,30.33
2019-02-28T20:10:50.699Z,31.03
2019-02-28T20:18:40.198Z,36.13
2019-02-28T20:21:18.059Z,28.30
2019-02-28T20:23:51.091Z,32.53
2019-02-28T20:32:51.276Z,40.17
2019-02-28T20:39:25.845Z,31.33
2019-02-28T20:42:00.137Z,37.80
2019-02-28T20:44:29.914Z,40.77
2019-02-28T20:47:01.666Z,35.67
2019-02-28T20:49:42.695Z,35.47
2019-02-28T21:00:18.785Z,36.90
2019-02-28T21:02:47.777Z,32.20
2019-02-28T21:05:16.630Z,40.57
2019-02-28T21:07:45.417Z,40.70
2019-02-28T21:10:15.973Z,37.93
2019-02-28T21:12:59.585Z,40.43
2019-02-28T21:15:24.834Z,35.60
2019-02-28T21:17:56.734Z,35.73
2019-02-28T21:20:25.508Z,41.87
2019-02-28T21:22:54.522Z,39.37
2019-02-28T21:25:35.058Z,39.13
2019-02-28T21:45:14.909Z,48.60
2019-02-28T21:50:40.856Z,45.67
2019-02-28T21:53:09.549Z,50.40
2019-02-28T21:56:07.069Z,53.20
2019-02-28T22:18:20.972Z,37.17
2019-02-28T22:20:49.635Z,42.50
2019-02-28T22:23:18.305Z,35.67
2019-02-28T22:25:46.886Z,35.97
2019-02-28T22:28:15.589Z,42.07
2019-02-28T22:30:45.845Z,30.10
2019-02-28T22:33:25.086Z,39.43
2019-02-28T22:36:10.610Z,34.37
2019-02-28T22:38:41.698Z,39.40
2019-02-28T22:41:10.448Z,40.13
2019-02-28T22:47:09.530Z,28.43
2019-02-28T22:49:38.218Z,38.37
2019-02-28T22:52:08.374Z,36.60
2019-02-28T22:54:37.148Z,30.80
2019-02-28T22:57:05.936Z,43.00
2019-02-28T22:59:34.714Z,33.60
2019-02-28T23:05:31.924Z,33.93
2019-02-28T23:11:41.588Z,35.87
2019-02-28T23:14:12.178Z,31.63
2019-02-28T23:16:40.834Z,33.93
2019-02-28T23:19:09.702Z,34.10
2019-02-28T23:21:47.502Z,37.10
2019-02-28T23:27:44.978Z,42.50
2019-02-28T23:30:22.468Z,42.57
2019-02-28T23:33:00.466Z,38.37
2019-02-28T23:35:31.916Z,44.87
2019-02-28T23:38:02.787Z,47.50
2019-02-28T23:40:31.432Z,42.70
2019-02-28T23:43:00.201Z,49.53
2019-02-28T23:45:28.942Z,43.90
2019-02-28T23:48:02.519Z,51.97
2019-02-28T23:50:30.860Z,59.13
2019-02-28T23:53:02.707Z,52.90
2019-02-28T23:55:39.449Z,60.37
2019-02-28T23:58:42.763Z,52.43
